Muse, OK (74949)

4:23 PM CST on January 31, 2015 (GMT -0600)
LCEM -Howe Middle School | Change Station
CLOSE
Current Station
Personal Weather Station
Location: Howe, OK
Elevation: 535 ft
Nearby Weather Stations

Elev 535 ft 34.95 °N, 94.64 °W | Updated 11 seconds ago

Mostly Cloudy
Mostly Cloudy
50.7 °F
Feels Like 50.7 °F
N
0.9
Wind Variable Wind from East
Gusts 3.0 mph

Today
High -- | Low -- °F
--% Chance of Precip.
Yesterday
High -- | Low -- °F
Precip. -- in
7:17 AM 5:46 PM
Waxing Gibbous, 92% visible
Pressure 30.07 in
Visibility 10.0 miles
Clouds Scattered Clouds 10000 ft
Mostly Cloudy 12000 ft
Dew Point 33 °F
Humidity 50%
Rainfall 0.00 in
Snow Depth Not available.
UV 1.0 out of 12
Pollen 3.60 out of 12
Air Quality Not available.
Flu Activity Not available.
METAR KRKR 312215Z AUTO 00000KT 10SM SCT100 BKN120 10/M02 A3007 RMK AO2 T01021025

More Conditions Fewer Conditions

Pressure 30.07 in
Visibility 10.0 miles
Clouds Scattered Clouds 10000 ft
Mostly Cloudy 12000 ft
Dew Point 33 °F
Humidity 50%
Rainfall 0.00 in
Snow Depth Not available.
UV 1.0 out of 12
Pollen 3.60 out of 12
Air Quality Not available.
Flu Activity Not available.
METAR KRKR 312215Z AUTO 00000KT 10SM SCT100 BKN120 10/M02 A3007 RMK AO2 T01021025

More Conditions Fewer Conditions

Nowcast | as of 3:06 PM CST on January 31, 2015

At 3:00 PM... National Weather Service Doppler radars continued to detect a large area of light rain or drizzle affecting much of the forecast area...mainly along and north of a line from McAlester...to Siloam Springs. Precipitation amounts had remained very light...with around a hundredth or two per hour. All this activity was moving toward the northeast...around 35 miles per hour. Through 5:00 PM...light rain or drizzle will persist across much of eastern Oklahoma and into portions of northwest Arkansas. Precipitation amounts are expected to remain light...with between a trace to a few hundredths of an inch per hour. Temperatures will remain above freezing...so no frozen precipitation is expected.

×

10-Day Weather Forecast

Almanac

Astronomy

Jan. 31, 2015 Rise Set
Actual Time
Civil Twilight
Nautical Twilight
Astronomical Twilight
Moon
Length of Visible Light
Length of Day
Tomorrow will be .
, % of the Moon is Illuminated

Today's Extremes

State Highs State Lows

Community

WunderPhotos

Upload Photos

1,792,225 photos uploaded!

WunderBlogs® & News

Nearby

Air Quality

  Air Quality AQ Index Pollutant
Not available.

Snow Depth

Station Depth Elevation

Earthquake Activity

City Distance Mag. Time & Date
Minimum magnitude displayed is 2.5.

Coastal Water Temperatures

Place Temperature

Nearby Weather Stations